X  Κλείσε Στοιχεία αεροπορικών μετεωρολογικών δεδομένων METAR     EDTY Adolf Würth Airport
θερμοκρασία
10°C θερμοκρασία
9°C Σημείο δρόσου
94% Υγρασία



Ανεμος
2 KM/H
1 MPH
0 M/S
1 KTS



Ηρεμία
V
Τρέχουσες συνθήκες

Κυρίως συννεφιά Κυρίως συννεφιά
πίεση 1011.85 (hPa) - 29.88 (inHg)
Ορατότητα 6 (μίλι) - 9.7 (km)
Aεροδρόμιο
Κωδικός αεροδρομίου EDTY

Τοποθεσία: Adolf Würth Airport
Απόσταση: 59 (km)

Metar:
EDTY 160150Z AUTO VRB01KT 9999 // BKN091/// OVC110/// 10/09 Q1012

ώρα: 16-06-2024 03:50 CEST